Time;durP1;ratioP1;P1;durP2;ratioP2;P2;SDS_P1;SDS_P2;PMS_P1;PMS_P2;Temp;Humidity;BMP_temperature;BMP_pressure;BME280_temperature;BME280_humidity;BME280_pressure;Samples;Min_cycle;Max_cycle;Signal;HPM_P1;HPM_P2
2021/09/28 05:12:51;;;;;;;9.10;4.37;;;14.00;99.90;;;;;;6279185;22;20257;-93
2021/09/28 05:15:49;;;;;;;10.60;4.43;;;14.20;99.90;;;;;;6237513;22;20191;-93
2021/09/28 05:18:20;;;;;;;10.83;4.10;;;14.10;99.90;;;;;;6201964;22;20155;-92
2021/09/28 05:20:52;;;;;;;10.90;4.87;;;14.00;99.90;;;;;;6236709;22;20170;-93
2021/09/28 05:23:31;;;;;;;12.10;4.47;;;14.00;99.90;;;;;;6240804;22;20148;-92
2021/09/28 05:26:10;;;;;;;19.10;4.07;;;13.90;99.90;;;;;;6260750;22;20143;-92
2021/09/28 05:36:11;;;;;;;14.67;4.47;;;13.80;99.90;;;;;;6283204;22;20185;-93
2021/09/28 05:45:07;;;;;;;10.03;4.57;;;14.00;99.90;;;;;;5945241;23;20157;-92
2021/09/28 05:48:30;;;;;;;11.77;4.20;;;13.90;99.90;;;;;;6101436;22;20165;-93
2021/09/28 05:51:32;;;;;;;;;;;;;;;;;;;;;
2021/09/28 05:54:01;;;;;;;10.87;4.27;;;14.00;99.90;;;;;;6284217;22;20183;-96
2021/09/28 05:56:59;;;;;;;17.67;4.77;;;14.00;99.90;;;;;;6254929;22;20675;-92
2021/09/28 05:59:29;;;;;;;11.63;4.50;;;14.10;99.90;;;;;;6261459;22;20234;-92
2021/09/28 06:01:57;;;;;;;12.27;5.57;;;14.20;99.90;;;;;;6261854;22;20230;-94
2021/09/28 06:04:22;;;;;;;14.40;5.30;;;14.20;99.90;;;;;;6252102;22;20197;-94
2021/09/28 06:06:48;;;;;;;14.97;4.83;;;14.10;99.90;;;;;;6252758;22;20159;-94
2021/09/28 06:09:23;;;;;;;13.43;4.67;;;14.20;99.90;;;;;;6253278;22;20147;-91
2021/09/28 06:12:09;;;;;;;15.27;4.73;;;14.20;99.90;;;;;;6252059;22;20183;-93
2021/09/28 06:14:40;;;;;;;14.43;4.17;;;14.20;99.90;;;;;;6251891;22;20175;-92
2021/09/28 06:17:08;;;;;;;10.93;4.23;;;14.20;99.90;;;;;;6250326;22;20142;-93
2021/09/28 06:19:39;;;;;;;12.83;5.03;;;14.20;99.90;;;;;;6258698;22;20150;-93
2021/09/28 06:22:16;;;;;;;14.70;4.10;;;14.30;99.90;;;;;;6256242;22;20144;-94
2021/09/28 06:34:38;;;;;;;12.93;5.43;;;14.30;99.90;;;;;;6177073;23;20155;-96
2021/09/28 06:38:12;;;;;;;15.77;5.80;;;14.30;99.90;;;;;;6227468;23;20146;-96
2021/09/28 06:48:06;;;;;;;;;;;;;;;;;;;;;
2021/09/28 06:55:18;;;;;;;;;;;;;;;;;;;;;
2021/09/28 07:08:49;;;;;;;;;;;;;;;;;;;;;
2021/09/28 07:18:52;;;;;;;15.97;4.77;;;14.80;99.90;;;;;;5844517;24;20530;-93
2021/09/28 07:44:49;;;;;;;16.43;3.57;;;15.50;99.90;;;;;;5786789;24;20698;-85
2021/09/28 08:52:49;;;;;;;9.17;3.60;;;16.40;99.90;;;;;;6213102;22;20189;-96
2021/09/28 14:35:24;;;;;;;6.37;0.90;;;27.80;72.00;;;;;;6245114;22;20214;-89
2021/09/28 14:37:50;;;;;;;5.60;1.10;;;28.40;71.50;;;;;;6220450;23;20159;-88
2021/09/28 14:40:16;;;;;;;3.57;0.90;;;29.40;70.50;;;;;;6220624;23;20152;-89
2021/09/28 16:19:56;;;;;;;;;;;;;;;;;;;;;
2021/09/28 16:28:36;;;;;;;2.17;1.13;;;22.30;87.00;;;;;;6166070;23;20204;-93
2021/09/28 16:31:44;;;;;;;4.23;1.20;;;21.80;88.60;;;;;;6213692;23;20157;-93
2021/09/28 16:34:21;;;;;;;8.70;1.50;;;21.70;89.40;;;;;;6210745;23;20155;-93
2021/09/28 16:37:16;;;;;;;5.30;1.20;;;21.80;89.10;;;;;;6234315;23;20221;-91
2021/09/28 16:40:12;;;;;;;5.27;0.90;;;21.90;89.60;;;;;;6240127;23;20170;-91
2021/09/28 16:43:01;;;;;;;5.43;0.97;;;22.00;90.10;;;;;;6263891;22;20162;-91
2021/09/28 16:45:36;;;;;;;3.73;1.00;;;22.00;89.90;;;;;;6207294;23;20169;-91
2021/09/28 16:48:37;;;;;;;;;;;;;;;;;;;;;
2021/09/28 16:51:21;;;;;;;6.30;1.57;;;22.00;90.30;;;;;;6256854;23;20142;-90
2021/09/28 16:53:58;;;;;;;8.83;1.57;;;22.00;90.30;;;;;;6231921;23;20161;-92
2021/09/28 16:56:38;;;;;;;;;;;;;;;;;;;;;
2021/09/28 16:59:19;;;;;;;6.30;1.40;;;22.00;90.90;;;;;;6247752;23;20158;-92
2021/09/28 17:02:04;;;;;;;4.17;1.43;;;22.10;90.60;;;;;;6230858;23;20564;-92
2021/09/28 17:04:32;;;;;;;4.53;1.30;;;22.10;90.90;;;;;;6231879;23;20157;-93
2021/09/28 17:07:13;;;;;;;;;;;;;;;;;;;;;
2021/09/28 17:09:50;;;;;;;2.53;1.20;;;21.90;91.00;;;;;;6255462;23;20176;-93
2021/09/28 17:15:05;;;;;;;7.33;1.60;;;21.60;91.80;;;;;;6256120;23;20199;-94
2021/09/28 17:17:37;;;;;;;3.67;1.10;;;21.60;91.90;;;;;;6231322;23;20142;-92
2021/09/28 17:20:23;;;;;;;;;;;;;;;;;;;;;
2021/09/28 17:22:55;;;;;;;5.43;1.70;;;21.40;92.20;;;;;;6258417;23;20151;-92
2021/09/28 17:25:25;;;;;;;5.20;1.70;;;21.30;92.50;;;;;;6230813;23;20159;-92
2021/09/28 17:27:57;;;;;;;4.63;1.67;;;21.40;92.50;;;;;;6226694;23;20169;-94
2021/09/28 17:30:23;;;;;;;8.20;1.70;;;21.30;92.70;;;;;;6223703;23;20157;-92
2021/09/28 17:32:52;;;;;;;5.10;2.03;;;21.20;93.20;;;;;;6224673;23;20155;-91
2021/09/28 17:35:19;;;;;;;5.00;2.17;;;21.30;92.80;;;;;;6223686;23;20190;-93
2021/09/28 17:37:48;;;;;;;7.73;1.67;;;21.30;93.00;;;;;;6225287;23;20150;-92
2021/09/28 17:40:17;;;;;;;7.57;1.97;;;21.20;93.10;;;;;;6224294;23;20574;-91
2021/09/28 17:42:43;;;;;;;5.77;2.00;;;20.90;93.70;;;;;;6224398;23;20151;-93
2021/09/28 17:45:10;;;;;;;7.97;2.20;;;20.90;93.70;;;;;;6223004;23;20186;-91
2021/09/28 17:47:36;;;;;;;6.60;1.93;;;20.90;93.80;;;;;;6222030;23;20156;-92
2021/09/28 17:50:08;;;;;;;5.40;1.63;;;20.90;94.00;;;;;;6224897;23;20162;-93
2021/09/28 17:52:35;;;;;;;4.43;1.67;;;20.80;94.30;;;;;;6225161;23;20163;-92
2021/09/28 17:57:27;;;;;;;6.40;2.80;;;20.60;95.00;;;;;;6260174;23;20148;-91
2021/09/28 17:59:55;;;;;;;7.83;2.20;;;20.70;95.30;;;;;;6223098;23;20167;-91
2021/09/28 18:02:26;;;;;;;5.40;1.97;;;20.70;94.90;;;;;;6224642;23;20221;-91
2021/09/28 18:04:53;;;;;;;4.03;1.57;;;20.70;94.90;;;;;;6225705;23;20244;-94
2021/09/28 18:07:34;;;;;;;6.13;2.20;;;20.50;95.20;;;;;;6230028;23;20195;-94
2021/09/28 18:10:02;;;;;;;8.07;2.00;;;20.50;95.20;;;;;;6223718;23;20694;-92
2021/09/28 18:13:01;;;;;;;5.20;1.70;;;20.50;95.20;;;;;;6225927;23;20170;-91
2021/09/28 18:15:30;;;;;;;4.03;2.03;;;20.50;95.40;;;;;;6220656;23;20200;-91
2021/09/28 18:18:29;;;;;;;4.63;1.80;;;20.40;95.80;;;;;;6223614;23;20163;-93
2021/09/28 18:20:58;;;;;;;6.93;2.10;;;20.50;95.70;;;;;;6240484;23;20154;-91
2021/09/28 18:23:46;;;;;;;4.47;2.17;;;20.40;96.00;;;;;;6223311;23;20161;-91
2021/09/28 18:26:33;;;;;;;7.53;1.77;;;20.20;96.30;;;;;;6224618;23;20162;-92
2021/09/28 18:29:15;;;;;;;;;;;;;;;;;;;;;
2021/09/28 18:32:05;;;;;;;2.87;1.90;;;20.20;96.30;;;;;;6250976;23;20170;-94
2021/09/28 18:34:32;;;;;;;5.80;1.90;;;20.20;96.40;;;;;;6223071;23;20623;-88
2021/09/28 18:37:05;;;;;;;6.53;2.10;;;20.10;96.70;;;;;;6220712;23;20301;-88
2021/09/28 18:42:34;;;;;;;4.53;1.87;;;20.00;96.90;;;;;;6154996;23;20600;-88
2021/09/28 18:45:00;;;;;;;4.57;1.60;;;19.90;97.20;;;;;;6221847;23;20203;-89
2021/09/28 18:47:26;;;;;;;5.17;2.00;;;19.80;97.20;;;;;;6221914;23;20144;-88
2021/09/28 18:49:52;;;;;;;5.37;1.70;;;19.90;97.20;;;;;;6223014;23;20147;-89
2021/09/28 18:52:20;;;;;;;7.17;1.53;;;19.80;97.30;;;;;;6221818;23;20233;-88
2021/09/28 18:54:54;;;;;;;4.90;2.17;;;19.80;97.30;;;;;;6222094;23;20236;-88
2021/09/28 18:57:22;;;;;;;5.30;1.47;;;19.70;97.50;;;;;;6223556;23;20155;-88
2021/09/28 18:59:53;;;;;;;3.87;1.53;;;19.60;97.80;;;;;;6222718;23;20232;-88
2021/09/28 19:02:34;;;;;;;4.17;1.80;;;19.60;97.80;;;;;;6221838;23;20167;-87
2021/09/28 19:05:15;;;;;;;13.37;1.93;;;19.70;97.90;;;;;;6222007;23;20154;-88
2021/09/28 19:07:53;;;;;;;3.57;1.70;;;19.50;98.30;;;;;;6222198;23;20171;-87
2021/09/28 19:10:24;;;;;;;4.67;1.73;;;19.50;98.70;;;;;;6223399;23;20171;-87
2021/09/28 19:12:59;;;;;;;5.93;1.90;;;19.40;98.80;;;;;;6223575;23;20156;-91
2021/09/28 19:15:54;;;;;;;3.30;1.80;;;19.30;98.80;;;;;;6222768;23;20183;-89
2021/09/28 19:18:21;;;;;;;3.90;1.67;;;19.30;99.00;;;;;;6251608;23;20155;-92
2021/09/28 19:23:33;;;;;;;7.00;1.90;;;19.40;98.60;;;;;;6212029;23;20186;-89
2021/09/28 19:25:59;;;;;;;7.00;2.10;;;19.30;98.60;;;;;;6223037;23;20143;-88
2021/09/28 19:28:25;;;;;;;8.07;2.03;;;19.10;98.90;;;;;;6221301;23;20241;-87
2021/09/28 19:30:54;;;;;;;6.80;1.87;;;19.00;99.30;;;;;;6213966;23;20164;-90
2021/09/28 19:33:20;;;;;;;6.20;2.10;;;19.00;99.40;;;;;;6218726;23;20155;-91
2021/09/28 19:35:46;;;;;;;6.03;1.97;;;19.00;99.50;;;;;;6226000;23;20193;-92
2021/09/28 19:38:20;;;;;;;4.97;2.23;;;18.90;99.70;;;;;;6219448;23;20143;-91
2021/09/28 19:40:53;;;;;;;5.47;2.47;;;18.90;99.80;;;;;;6219539;23;20604;-92
2021/09/28 19:43:24;;;;;;;4.90;2.20;;;18.90;99.70;;;;;;6221781;23;20151;-91
2021/09/28 19:46:12;;;;;;;4.90;2.10;;;18.80;99.90;;;;;;6225651;23;20502;-91
2021/09/28 19:48:48;;;;;;;4.63;2.57;;;18.70;99.90;;;;;;6221066;23;20476;-91
2021/09/28 19:51:19;;;;;;;6.20;2.00;;;18.70;99.90;;;;;;6222687;23;20147;-91
2021/09/28 19:53:45;;;;;;;4.20;2.10;;;18.70;99.90;;;;;;6234424;23;20151;-91
2021/09/28 19:56:19;;;;;;;3.73;1.97;;;18.70;99.90;;;;;;6220305;23;20642;-91
2021/09/28 19:59:16;;;;;;;6.80;1.83;;;18.50;99.90;;;;;;6224782;23;20158;-91
2021/09/28 20:37:17;;;;;;;4.70;2.30;;;17.90;99.90;;;;;;6223108;23;20294;-91
2021/09/28 20:39:43;;;;;;;5.83;2.37;;;17.80;99.90;;;;;;6195240;23;20527;-93
2021/09/28 20:42:12;;;;;;;5.27;2.60;;;17.80;99.90;;;;;;6195466;23;20247;-92
2021/09/28 20:44:38;;;;;;;5.37;2.60;;;17.70;99.90;;;;;;6194327;23;20144;-92
2021/09/28 20:47:05;;;;;;;6.07;2.60;;;17.60;99.90;;;;;;6194009;23;20148;-92
2021/09/28 20:49:30;;;;;;;9.17;2.37;;;17.60;99.90;;;;;;6194743;23;20163;-93
2021/09/28 20:51:56;;;;;;;6.17;3.17;;;17.50;99.90;;;;;;6195015;23;20151;-92
2021/09/28 20:54:25;;;;;;;6.50;3.30;;;17.40;99.90;;;;;;6193324;23;20182;-93
2021/09/28 20:56:57;;;;;;;7.00;2.50;;;17.40;99.90;;;;;;6198261;23;20211;-93
2021/09/28 20:59:26;;;;;;;5.77;2.50;;;17.30;99.90;;;;;;6195232;23;20147;-92
2021/09/28 21:01:58;;;;;;;6.53;2.53;;;17.20;99.90;;;;;;6191598;23;20154;-92
2021/09/28 21:08:11;;;;;;;7.57;2.60;;;17.40;99.90;;;;;;6107607;23;20253;-94
2021/09/28 21:11:34;;;;;;;;;;;;;;;;;;;;;
2021/09/28 21:17:33;;;;;;;4.57;2.20;;;17.50;99.90;;;;;;6201779;23;20191;-93
2021/09/28 21:20:40;;;;;;;4.87;2.23;;;17.40;99.90;;;;;;6190764;23;20206;-92
2021/09/28 21:23:26;;;;;;;6.07;2.67;;;17.40;99.90;;;;;;6199397;23;20151;-93
2021/09/28 21:26:20;;;;;;;4.73;2.40;;;17.40;99.90;;;;;;6220010;23;20154;-94
2021/09/28 21:30:05;;;;;;;;;;;;;;;;;;;;;
2021/09/28 21:35:46;;;;;;;;;;;;;;;;;;;;;
2021/09/28 21:38:40;;;;;;;;;;;;;;;;;;;;;
2021/09/28 21:41:35;;;;;;;4.27;2.40;;;17.10;99.90;;;;;;6221701;23;20164;-93
2021/09/28 21:44:13;;;;;;;5.23;2.80;;;17.00;99.90;;;;;;6195955;23;20233;-92
2021/09/28 21:50:26;;;;;;;5.33;3.17;;;17.00;99.90;;;;;;6225971;23;20156;-93
2021/09/28 21:53:02;;;;;;;5.87;3.00;;;16.90;99.90;;;;;;6194976;23;20155;-94
2021/09/28 21:56:50;;;;;;;4.60;2.50;;;16.70;99.90;;;;;;6200170;23;20181;-95
2021/09/28 21:59:03;;;;;;;6.07;3.43;;;16.70;99.90;;;;;;6202111;23;20158;-93
2021/09/28 22:02:02;;;;;;;;;;;;;;;;;;;;;
2021/09/28 22:04:49;;;;;;;;;;;;;;;;;;;;;
2021/09/28 22:08:11;;;;;;;;;;;;;;;;;;;;;
2021/09/28 22:11:25;;;;;;;6.13;3.23;;;16.70;99.90;;;;;;6218828;23;20251;-91
2021/09/28 22:17:26;;;;;;;;;;;;;;;;;;;;;
2021/09/28 22:19:55;;;;;;;9.20;3.30;;;16.80;99.90;;;;;;6218609;23;20649;-92
2021/09/28 22:23:21;;;;;;;;;;;;;;;;;;;;;
2021/09/28 22:29:44;;;;;;;9.53;3.30;;;16.40;99.90;;;;;;6070064;23;20172;-95
2021/09/28 22:53:03;;;;;;;;;;;;;;;;;;;;;
2021/09/28 23:00:08;;;;;;;;;;;;;;;;;;;;;
2021/09/28 23:03:27;;;;;;;8.93;3.90;;;16.10;99.90;;;;;;6071018;23;20602;-92
2021/09/28 23:06:44;;;;;;;;;;;;;;;;;;;;;
2021/09/28 23:09:15;;;;;;;6.67;3.47;;;16.20;99.90;;;;;;6223423;23;20218;-96
2021/09/28 23:11:44;;;;;;;8.27;3.60;;;16.20;99.90;;;;;;6197140;23;20186;-94
2021/09/28 23:14:20;;;;;;;7.77;3.93;;;16.10;99.90;;;;;;6201357;23;20157;-94
2021/09/28 23:17:01;;;;;;;;;;;;;;;;;;;;;
2021/09/28 23:19:49;;;;;;;10.73;4.20;;;16.00;99.90;;;;;;6226059;23;20580;-93
2021/09/28 23:23:20;;;;;;;;;;;;;;;;;;;;;
2021/09/28 23:26:09;;;;;;;7.90;3.70;;;16.00;99.90;;;;;;6231767;23;20189;-94
2021/09/28 23:28:40;;;;;;;8.00;3.80;;;16.10;99.90;;;;;;6216257;22;20198;-94
2021/09/28 23:31:42;;;;;;;6.70;4.07;;;16.10;99.90;;;;;;6210465;23;20150;-94
2021/09/28 23:34:28;;;;;;;7.53;3.40;;;16.00;99.90;;;;;;6220502;23;20159;-93
2021/09/28 23:37:47;;;;;;;;;;;;;;;;;;;;;
2021/09/28 23:43:51;;;;;;;6.77;3.57;;;16.00;99.90;;;;;;6157024;23;20157;-95
2021/09/28 23:46:44;;;;;;;9.33;3.93;;;16.10;99.90;;;;;;6192662;23;20477;-93
2021/09/28 23:56:01;;;;;;;7.43;4.20;;;16.10;99.90;;;;;;6219658;23;20192;-91
2021/09/28 23:58:30;;;;;;;9.27;4.53;;;16.10;99.90;;;;;;6194168;23;20156;-94
